createdAt,value
2017-03-25T00:00:03.232Z,2
2017-03-25T00:05:03.265Z,2
2017-03-25T00:10:02.988Z,2
2017-03-25T00:15:02.684Z,2
2017-03-25T00:20:03.417Z,2
2017-03-25T00:25:03.049Z,2
2017-03-25T00:30:02.685Z,2
2017-03-25T00:35:03.366Z,1
2017-03-25T00:40:02.975Z,1
2017-03-25T00:45:03.554Z,0
2017-03-25T00:50:03.310Z,1
2017-03-25T00:55:02.949Z,3
2017-03-25T01:00:02.703Z,0
2017-03-25T01:05:02.743Z,0
2017-03-25T01:10:03.395Z,0
2017-03-25T01:15:02.998Z,0
2017-03-25T01:20:03.622Z,0
2017-03-25T01:25:03.343Z,0
2017-03-25T01:30:03.278Z,0
2017-03-25T01:35:02.913Z,0
2017-03-25T01:40:02.684Z,0
2017-03-25T01:45:03.244Z,0
2017-03-25T01:50:02.886Z,0
2017-03-25T01:55:02.618Z,0
2017-03-25T02:00:03.291Z,0
2017-03-25T02:05:02.978Z,0
2017-03-25T02:10:02.670Z,0
2017-03-25T02:15:03.282Z,0
2017-03-25T02:20:02.859Z,0
2017-03-25T02:25:03.418Z,0
2017-03-25T02:30:03.329Z,1
2017-03-25T02:35:03.030Z,2
2017-03-25T02:40:02.816Z,1
2017-03-25T02:45:03.469Z,0
2017-03-25T02:50:03.092Z,0
2017-03-25T02:55:02.692Z,0
2017-03-25T03:00:03.302Z,0
2017-03-25T03:05:02.935Z,1
2017-03-25T03:10:02.756Z,0
2017-03-25T03:15:03.487Z,0
2017-03-25T03:20:03.190Z,0
2017-03-25T03:25:02.801Z,0
2017-03-25T03:30:03.727Z,0
2017-03-25T03:35:03.396Z,0
2017-03-25T03:40:03.182Z,0
2017-03-25T03:45:02.752Z,0
2017-03-25T03:50:03.306Z,0
2017-03-25T03:55:02.956Z,0
2017-03-25T04:00:02.693Z,0
2017-03-25T04:05:03.417Z,0
2017-03-25T04:10:03.195Z,0
2017-03-25T04:15:02.907Z,0
2017-03-25T04:20:03.458Z,0
2017-03-25T04:25:03.106Z,0
2017-03-25T04:30:02.920Z,0
2017-03-25T04:35:03.550Z,0
2017-03-25T04:40:03.301Z,0
2017-03-25T04:45:02.866Z,0
2017-03-25T04:50:03.594Z,0
2017-03-25T04:55:03.213Z,0
2017-03-25T05:00:02.798Z,0
2017-03-25T05:05:03.777Z,0
2017-03-25T05:10:03.555Z,0
2017-03-25T05:15:03.273Z,1
2017-03-25T05:20:02.802Z,0
2017-03-25T05:25:03.518Z,0
2017-03-25T05:30:03.373Z,0
2017-03-25T05:35:02.986Z,0
2017-03-25T05:40:02.669Z,0
2017-03-25T05:45:03.221Z,0
2017-03-25T05:50:02.929Z,0
2017-03-25T05:55:03.549Z,0
2017-03-25T06:00:03.121Z,0
2017-03-25T06:05:02.666Z,1
2017-03-25T06:10:03.367Z,0
2017-03-25T06:15:03.160Z,0
2017-03-25T06:20:02.727Z,0
2017-03-25T06:25:03.415Z,0
2017-03-25T06:30:03.113Z,0
2017-03-25T06:35:02.772Z,0
2017-03-25T06:40:03.444Z,0
2017-03-25T06:45:03.186Z,0
2017-03-25T06:50:02.687Z,0
2017-03-25T06:55:03.415Z,0
2017-03-25T07:00:03.123Z,0
2017-03-25T07:05:02.915Z,0
2017-03-25T07:10:02.775Z,2
2017-03-25T07:15:03.404Z,0
2017-03-25T07:20:03.127Z,0
2017-03-25T07:25:02.671Z,2
2017-03-25T07:30:03.452Z,1
2017-03-25T07:35:03.186Z,2
2017-03-25T07:40:02.911Z,3
2017-03-25T07:45:02.694Z,0
2017-03-25T07:50:03.433Z,0
2017-03-25T07:55:03.111Z,2
2017-03-25T08:00:02.703Z,2
2017-03-25T08:05:03.327Z,2
2017-03-25T08:10:03.044Z,0
2017-03-25T08:15:02.611Z,0
2017-03-25T08:20:03.299Z,0
2017-03-25T08:25:02.946Z,0
2017-03-25T08:30:03.627Z,0
2017-03-25T08:35:03.299Z,0
2017-03-25T08:40:03.020Z,2
2017-03-25T08:45:02.695Z,0
2017-03-25T08:50:03.416Z,0
2017-03-25T08:55:02.984Z,1
2017-03-25T09:00:02.692Z,0
2017-03-25T09:05:03.346Z,0
2017-03-25T09:10:03.135Z,0
2017-03-25T09:15:02.675Z,2
2017-03-25T09:20:03.291Z,2
2017-03-25T09:25:02.892Z,3
2017-03-25T09:30:03.647Z,0
2017-03-25T09:35:03.358Z,0
2017-03-25T09:40:02.979Z,0
2017-03-25T09:45:02.617Z,2
2017-03-25T09:50:03.405Z,2
2017-03-25T09:55:03.249Z,0
2017-03-25T10:00:02.850Z,0
2017-03-25T10:05:03.425Z,3
2017-03-25T10:10:03.294Z,4
2017-03-25T10:15:02.886Z,6
2017-03-25T10:20:03.426Z,3
2017-03-25T10:25:03.313Z,3
2017-03-25T10:30:02.996Z,5
2017-03-25T10:35:02.648Z,4
2017-03-25T10:40:02.873Z,0
2017-03-25T10:45:03.590Z,5
2017-03-25T10:50:03.233Z,2
2017-03-25T10:55:02.941Z,3
2017-03-25T11:00:02.954Z,3
2017-03-25T11:05:03.637Z,3
2017-03-25T11:10:03.488Z,6
2017-03-25T11:15:03.324Z,3
2017-03-25T11:20:03.100Z,2
2017-03-25T11:25:03.142Z,1
2017-03-25T11:30:03.003Z,0
2017-03-25T11:35:03.067Z,2
2017-03-25T11:40:02.902Z,2
2017-03-25T11:45:02.844Z,2
2017-03-25T11:50:02.695Z,2
2017-03-25T11:55:02.972Z,2
2017-03-25T12:00:03.159Z,5
2017-03-25T12:05:02.918Z,3
2017-03-25T12:10:02.961Z,2
2017-03-25T12:15:03.056Z,4
2017-03-25T12:20:03.392Z,3
2017-03-25T12:25:02.741Z,1
2017-03-25T12:30:02.660Z,1
2017-03-25T12:35:02.955Z,4
2017-03-25T12:40:03.533Z,2
2017-03-25T12:45:02.660Z,3
2017-03-25T12:50:02.840Z,3
2017-03-25T12:55:02.681Z,3
2017-03-25T13:00:03.570Z,3
2017-03-25T13:05:03.295Z,2
2017-03-25T13:10:02.762Z,2
2017-03-25T13:15:03.715Z,2
2017-03-25T13:20:03.489Z,3
2017-03-25T13:25:03.164Z,2
2017-03-25T13:30:02.946Z,4
2017-03-25T13:35:03.692Z,3
2017-03-25T13:40:03.437Z,3
2017-03-25T13:45:03.092Z,4
2017-03-25T13:50:02.860Z,3
2017-03-25T13:55:03.605Z,5
2017-03-25T14:00:03.608Z,4
2017-03-25T14:05:03.396Z,4
2017-03-25T14:10:02.739Z,4
2017-03-25T14:15:02.901Z,3
2017-03-25T14:20:03.155Z,4
2017-03-25T14:25:03.383Z,1
2017-03-25T14:30:03.102Z,3
2017-03-25T14:35:03.650Z,5
2017-03-25T14:40:02.769Z,3
2017-03-25T14:45:03.120Z,6
2017-03-25T14:50:02.982Z,5
2017-03-25T14:55:02.626Z,2
2017-03-25T15:00:03.467Z,4
2017-03-25T15:05:02.742Z,7
2017-03-25T15:10:03.084Z,2
2017-03-25T15:15:03.466Z,2
2017-03-25T15:20:03.276Z,3
2017-03-25T15:25:02.868Z,3
2017-03-25T15:30:03.151Z,2
2017-03-25T15:35:02.773Z,4
2017-03-25T15:40:03.476Z,6
2017-03-25T15:45:02.849Z,3
2017-03-25T15:50:03.179Z,3
2017-03-25T15:55:03.195Z,4
2017-03-25T16:00:03.379Z,4
2017-03-25T16:05:03.233Z,4
2017-03-25T16:10:03.465Z,4
2017-03-25T16:15:03.599Z,3
2017-03-25T16:20:02.803Z,3
2017-03-25T16:25:03.113Z,5
2017-03-25T16:30:03.293Z,2
2017-03-25T16:35:02.631Z,1
2017-03-25T16:40:02.999Z,3
2017-03-25T16:45:03.282Z,4
2017-03-25T16:50:03.362Z,3
2017-03-25T16:55:03.619Z,3
2017-03-25T17:00:03.355Z,1
2017-03-25T17:05:03.197Z,3
2017-03-25T17:10:02.996Z,1
2017-03-25T17:15:02.772Z,3
2017-03-25T17:20:03.434Z,2
2017-03-25T17:25:03.239Z,2
2017-03-25T17:30:02.990Z,0
2017-03-25T17:35:03.543Z,2
2017-03-25T17:40:03.434Z,0
2017-03-25T17:45:03.134Z,0
2017-03-25T17:50:02.855Z,0
2017-03-25T17:55:03.482Z,2
2017-03-25T18:00:03.150Z,0
2017-03-25T18:05:02.906Z,2
2017-03-25T18:10:02.772Z,2
2017-03-25T18:15:03.513Z,0
2017-03-25T18:20:03.166Z,1
2017-03-25T18:25:02.891Z,1
2017-03-25T18:30:03.558Z,0
2017-03-25T18:35:03.256Z,0
2017-03-25T18:40:03.041Z,0
2017-03-25T18:45:02.717Z,0
2017-03-25T18:50:03.271Z,0
2017-03-25T18:55:02.793Z,2
2017-03-25T19:00:03.388Z,3
2017-03-25T19:05:03.099Z,0
2017-03-25T19:10:02.817Z,0
2017-03-25T19:15:03.492Z,0
2017-03-25T19:20:03.245Z,0
2017-03-25T19:25:02.982Z,1
2017-03-25T19:30:02.642Z,1
2017-03-25T19:35:03.291Z,3
2017-03-25T19:40:03.029Z,1
2017-03-25T19:45:02.651Z,0
2017-03-25T19:50:03.257Z,2
2017-03-25T19:55:02.843Z,3
2017-03-25T20:00:02.669Z,1
2017-03-25T20:05:03.348Z,2
2017-03-25T20:10:03.088Z,4
2017-03-25T20:15:02.799Z,3
2017-03-25T20:20:03.475Z,2
2017-03-25T20:25:03.184Z,2
2017-03-25T20:30:02.842Z,2
2017-03-25T20:35:03.432Z,0
2017-03-25T20:40:03.155Z,0
2017-03-25T20:45:02.762Z,0
2017-03-25T20:50:03.518Z,0
2017-03-25T20:55:03.084Z,0
2017-03-25T21:00:02.802Z,0
2017-03-25T21:05:03.486Z,3
2017-03-25T21:10:03.269Z,2
2017-03-25T21:15:02.916Z,2
2017-03-25T21:20:02.673Z,0
2017-03-25T21:25:03.291Z,0
2017-03-25T21:30:02.942Z,1
2017-03-25T21:35:03.591Z,0
2017-03-25T21:40:03.227Z,2
2017-03-25T21:45:03.007Z,2
2017-03-25T21:50:02.620Z,2
2017-03-25T21:55:03.194Z,2
2017-03-25T22:00:02.908Z,2
2017-03-25T22:05:03.514Z,2
2017-03-25T22:10:03.175Z,2
2017-03-25T22:15:02.940Z,3
2017-03-25T22:20:02.627Z,2
2017-03-25T22:25:03.213Z,2
2017-03-25T22:30:02.963Z,2
2017-03-25T22:35:02.747Z,2
2017-03-25T22:40:03.573Z,3
2017-03-25T22:45:03.384Z,2
2017-03-25T22:50:03.120Z,2
2017-03-25T22:55:02.712Z,1
2017-03-25T23:00:03.421Z,0
2017-03-25T23:05:03.186Z,0
2017-03-25T23:10:02.774Z,0
2017-03-25T23:15:03.428Z,1
2017-03-25T23:20:03.201Z,0
2017-03-25T23:25:02.892Z,0
2017-03-25T23:30:03.536Z,2
2017-03-25T23:35:03.209Z,0
2017-03-25T23:40:02.972Z,1
2017-03-25T23:45:02.661Z,0
2017-03-25T23:50:03.303Z,2
2017-03-25T23:55:02.917Z,1
